sensor_id;sensor_type;location;lat;lon;timestamp;P1;durP1;ratioP1;P2;durP2;ratioP2
54259;SDS011;40172;53.022;7.012;2023-02-28T00:00:25;10.57;;;2.95;;
54259;SDS011;40172;53.022;7.012;2023-02-28T00:02:51;13.15;;;3.10;;
54259;SDS011;40172;53.022;7.012;2023-02-28T00:05:17;12.05;;;2.63;;
54259;SDS011;40172;53.022;7.012;2023-02-28T00:07:45;8.77;;;2.90;;
54259;SDS011;40172;53.022;7.012;2023-02-28T00:10:12;17.92;;;6.72;;
54259;SDS011;40172;53.022;7.012;2023-02-28T00:12:39;5.72;;;2.50;;
54259;SDS011;40172;53.022;7.012;2023-02-28T00:15:05;5.15;;;2.22;;
54259;SDS011;40172;53.022;7.012;2023-02-28T00:17:33;4.45;;;2.60;;
54259;SDS011;40172;53.022;7.012;2023-02-28T00:19:58;7.85;;;3.00;;
54259;SDS011;40172;53.022;7.012;2023-02-28T00:22:27;6.10;;;2.88;;
54259;SDS011;40172;53.022;7.012;2023-02-28T00:24:52;10.27;;;3.50;;
54259;SDS011;40172;53.022;7.012;2023-02-28T00:27:18;12.77;;;2.88;;
54259;SDS011;40172;53.022;7.012;2023-02-28T00:29:43;8.02;;;3.05;;
54259;SDS011;40172;53.022;7.012;2023-02-28T00:32:11;19.13;;;7.05;;
54259;SDS011;40172;53.022;7.012;2023-02-28T00:34:37;17.55;;;7.28;;
54259;SDS011;40172;53.022;7.012;2023-02-28T00:37:06;12.50;;;6.30;;
54259;SDS011;40172;53.022;7.012;2023-02-28T00:39:34;13.18;;;6.57;;
54259;SDS011;40172;53.022;7.012;2023-02-28T00:42:01;18.00;;;6.85;;
54259;SDS011;40172;53.022;7.012;2023-02-28T00:44:27;15.50;;;7.05;;
54259;SDS011;40172;53.022;7.012;2023-02-28T00:46:53;19.88;;;7.82;;
54259;SDS011;40172;53.022;7.012;2023-02-28T00:49:20;16.70;;;7.97;;
54259;SDS011;40172;53.022;7.012;2023-02-28T00:51:46;6.68;;;2.90;;
54259;SDS011;40172;53.022;7.012;2023-02-28T00:54:12;6.63;;;3.42;;
54259;SDS011;40172;53.022;7.012;2023-02-28T00:56:37;6.28;;;2.60;;
54259;SDS011;40172;53.022;7.012;2023-02-28T00:59:03;7.32;;;3.00;;
54259;SDS011;40172;53.022;7.012;2023-02-28T01:01:29;5.72;;;2.85;;
54259;SDS011;40172;53.022;7.012;2023-02-28T01:03:54;10.80;;;3.75;;
54259;SDS011;40172;53.022;7.012;2023-02-28T01:06:20;20.92;;;7.45;;
54259;SDS011;40172;53.022;7.012;2023-02-28T01:08:45;7.93;;;2.80;;
54259;SDS011;40172;53.022;7.012;2023-02-28T01:11:12;8.43;;;2.90;;
54259;SDS011;40172;53.022;7.012;2023-02-28T01:13:39;7.05;;;2.97;;
54259;SDS011;40172;53.022;7.012;2023-02-28T01:16:06;5.25;;;2.70;;
54259;SDS011;40172;53.022;7.012;2023-02-28T01:18:31;15.45;;;7.28;;
54259;SDS011;40172;53.022;7.012;2023-02-28T01:20:57;16.67;;;7.32;;
54259;SDS011;40172;53.022;7.012;2023-02-28T01:23:23;16.90;;;7.88;;
54259;SDS011;40172;53.022;7.012;2023-02-28T01:25:52;9.15;;;3.55;;
54259;SDS011;40172;53.022;7.012;2023-02-28T01:28:18;5.70;;;2.70;;
54259;SDS011;40172;53.022;7.012;2023-02-28T01:30:47;6.93;;;2.97;;
54259;SDS011;40172;53.022;7.012;2023-02-28T01:33:14;11.43;;;4.05;;
54259;SDS011;40172;53.022;7.012;2023-02-28T01:35:40;4.45;;;2.70;;
54259;SDS011;40172;53.022;7.012;2023-02-28T01:38:05;8.77;;;3.40;;
54259;SDS011;40172;53.022;7.012;2023-02-28T01:40:31;7.68;;;3.50;;
54259;SDS011;40172;53.022;7.012;2023-02-28T01:42:56;5.85;;;2.95;;
54259;SDS011;40172;53.022;7.012;2023-02-28T01:47:53;6.32;;;3.38;;
54259;SDS011;40172;53.022;7.012;2023-02-28T01:50:23;18.58;;;8.98;;
54259;SDS011;40172;53.022;7.012;2023-02-28T01:52:53;18.48;;;9.13;;
54259;SDS011;40172;53.022;7.012;2023-02-28T01:55:24;15.80;;;9.20;;
54259;SDS011;40172;53.022;7.012;2023-02-28T01:57:54;19.42;;;9.65;;
54259;SDS011;40172;53.022;7.012;2023-02-28T02:00:23;16.20;;;9.30;;
54259;SDS011;40172;53.022;7.012;2023-02-28T02:02:53;10.93;;;3.67;;
54259;SDS011;40172;53.022;7.012;2023-02-28T02:05:22;11.35;;;3.38;;
54259;SDS011;40172;53.022;7.012;2023-02-28T02:07:54;8.55;;;3.88;;
54259;SDS011;40172;53.022;7.012;2023-02-28T02:10:26;20.42;;;10.02;;
54259;SDS011;40172;53.022;7.012;2023-02-28T02:13:11;7.85;;;4.15;;
54259;SDS011;40172;53.022;7.012;2023-02-28T02:18:43;13.02;;;4.68;;
54259;SDS011;40172;53.022;7.012;2023-02-28T02:27:48;6.43;;;3.45;;
54259;SDS011;40172;53.022;7.012;2023-02-28T02:38:09;22.88;;;11.68;;
54259;SDS011;40172;53.022;7.012;2023-02-28T02:41:12;19.83;;;11.13;;
54259;SDS011;40172;53.022;7.012;2023-02-28T02:43:56;10.63;;;3.95;;
54259;SDS011;40172;53.022;7.012;2023-02-28T02:46:31;8.65;;;3.88;;
54259;SDS011;40172;53.022;7.012;2023-02-28T02:49:03;10.85;;;4.22;;
54259;SDS011;40172;53.022;7.012;2023-02-28T02:51:33;9.95;;;3.80;;
54259;SDS011;40172;53.022;7.012;2023-02-28T02:54:02;24.60;;;13.35;;
54259;SDS011;40172;53.022;7.012;2023-02-28T02:56:36;22.67;;;12.55;;
54259;SDS011;40172;53.022;7.012;2023-02-28T02:59:06;22.08;;;12.55;;
54259;SDS011;40172;53.022;7.012;2023-02-28T03:01:37;22.10;;;12.05;;
54259;SDS011;40172;53.022;7.012;2023-02-28T03:04:05;9.70;;;4.07;;
54259;SDS011;40172;53.022;7.012;2023-02-28T03:06:34;7.85;;;4.07;;
54259;SDS011;40172;53.022;7.012;2023-02-28T03:11:46;7.45;;;4.03;;
54259;SDS011;40172;53.022;7.012;2023-02-28T03:14:25;8.13;;;3.75;;
54259;SDS011;40172;53.022;7.012;2023-02-28T03:17:32;20.02;;;11.18;;
54259;SDS011;40172;53.022;7.012;2023-02-28T03:20:35;23.15;;;11.30;;
54259;SDS011;40172;53.022;7.012;2023-02-28T03:26:25;6.45;;;3.30;;
54259;SDS011;40172;53.022;7.012;2023-02-28T03:31:53;16.65;;;3.92;;
54259;SDS011;40172;53.022;7.012;2023-02-28T03:38:21;6.30;;;3.85;;
54259;SDS011;40172;53.022;7.012;2023-02-28T03:45:08;7.25;;;3.20;;
54259;SDS011;40172;53.022;7.012;2023-02-28T03:51:02;8.35;;;3.75;;
54259;SDS011;40172;53.022;7.012;2023-02-28T03:53:54;7.68;;;3.95;;
54259;SDS011;40172;53.022;7.012;2023-02-28T03:56:37;7.43;;;3.88;;
54259;SDS011;40172;53.022;7.012;2023-02-28T04:02:42;25.15;;;14.15;;
54259;SDS011;40172;53.022;7.012;2023-02-28T04:09:01;26.02;;;14.43;;
54259;SDS011;40172;53.022;7.012;2023-02-28T04:11:57;10.45;;;5.35;;
54259;SDS011;40172;53.022;7.012;2023-02-28T04:14:41;9.68;;;3.70;;
54259;SDS011;40172;53.022;7.012;2023-02-28T04:18:02;11.50;;;4.43;;
54259;SDS011;40172;53.022;7.012;2023-02-28T04:32:11;8.40;;;4.47;;
54259;SDS011;40172;53.022;7.012;2023-02-28T04:35:10;10.70;;;4.10;;
54259;SDS011;40172;53.022;7.012;2023-02-28T04:38:26;6.97;;;3.97;;
54259;SDS011;40172;53.022;7.012;2023-02-28T04:41:35;7.65;;;4.10;;
54259;SDS011;40172;53.022;7.012;2023-02-28T04:51:08;10.07;;;3.67;;
54259;SDS011;40172;53.022;7.012;2023-02-28T04:54:03;9.82;;;4.00;;
54259;SDS011;40172;53.022;7.012;2023-02-28T05:00:48;24.33;;;14.43;;
54259;SDS011;40172;53.022;7.012;2023-02-28T05:07:03;23.70;;;15.55;;
54259;SDS011;40172;53.022;7.012;2023-02-28T05:12:38;12.80;;;5.70;;
54259;SDS011;40172;53.022;7.012;2023-02-28T05:15:07;10.93;;;4.15;;
54259;SDS011;40172;53.022;7.012;2023-02-28T05:18:05;6.88;;;3.70;;
54259;SDS011;40172;53.022;7.012;2023-02-28T05:21:19;8.18;;;4.18;;
54259;SDS011;40172;53.022;7.012;2023-02-28T05:27:17;9.35;;;3.72;;
54259;SDS011;40172;53.022;7.012;2023-02-28T05:30:14;8.05;;;4.18;;
54259;SDS011;40172;53.022;7.012;2023-02-28T05:32:43;9.88;;;4.32;;
54259;SDS011;40172;53.022;7.012;2023-02-28T05:35:29;7.25;;;4.03;;
54259;SDS011;40172;53.022;7.012;2023-02-28T05:38:13;19.23;;;4.93;;
54259;SDS011;40172;53.022;7.012;2023-02-28T05:40:47;7.53;;;3.75;;
54259;SDS011;40172;53.022;7.012;2023-02-28T05:43:30;14.05;;;5.53;;
54259;SDS011;40172;53.022;7.012;2023-02-28T05:46:11;11.32;;;4.63;;
54259;SDS011;40172;53.022;7.012;2023-02-28T05:49:31;15.57;;;4.60;;
54259;SDS011;40172;53.022;7.012;2023-02-28T05:55:46;11.27;;;5.05;;
54259;SDS011;40172;53.022;7.012;2023-02-28T06:08:17;11.25;;;5.07;;
54259;SDS011;40172;53.022;7.012;2023-02-28T06:11:05;11.75;;;5.95;;
54259;SDS011;40172;53.022;7.012;2023-02-28T06:17:17;11.45;;;6.22;;
54259;SDS011;40172;53.022;7.012;2023-02-28T06:20:11;12.40;;;5.82;;
54259;SDS011;40172;53.022;7.012;2023-02-28T06:27:11;31.90;;;19.40;;
54259;SDS011;40172;53.022;7.012;2023-02-28T06:29:56;34.10;;;21.08;;
54259;SDS011;40172;53.022;7.012;2023-02-28T06:33:15;7.50;;;4.28;;
54259;SDS011;40172;53.022;7.012;2023-02-28T06:42:54;15.13;;;7.47;;
54259;SDS011;40172;53.022;7.012;2023-02-28T06:45:53;11.68;;;5.75;;
54259;SDS011;40172;53.022;7.012;2023-02-28T06:48:58;8.75;;;5.10;;
54259;SDS011;40172;53.022;7.012;2023-02-28T06:51:44;9.85;;;4.22;;
54259;SDS011;40172;53.022;7.012;2023-02-28T07:05:45;13.07;;;5.57;;
54259;SDS011;40172;53.022;7.012;2023-02-28T07:15:25;32.28;;;21.25;;
54259;SDS011;40172;53.022;7.012;2023-02-28T07:18:22;36.15;;;20.90;;
54259;SDS011;40172;53.022;7.012;2023-02-28T07:32:06;31.67;;;19.83;;
54259;SDS011;40172;53.022;7.012;2023-02-28T08:07:36;21.30;;;15.65;;
54259;SDS011;40172;53.022;7.012;2023-02-28T08:11:26;22.35;;;16.15;;
54259;SDS011;40172;53.022;7.012;2023-02-28T08:15:02;21.58;;;15.38;;
54259;SDS011;40172;53.022;7.012;2023-02-28T08:18:15;22.42;;;14.88;;
54259;SDS011;40172;53.022;7.012;2023-02-28T08:28:41;18.30;;;14.75;;
54259;SDS011;40172;53.022;7.012;2023-02-28T08:32:18;19.85;;;14.45;;
54259;SDS011;40172;53.022;7.012;2023-02-28T08:46:31;21.20;;;15.23;;
54259;SDS011;40172;53.022;7.012;2023-02-28T08:48:56;20.70;;;14.05;;
54259;SDS011;40172;53.022;7.012;2023-02-28T08:51:25;21.23;;;15.13;;
54259;SDS011;40172;53.022;7.012;2023-02-28T08:53:54;22.02;;;15.70;;
54259;SDS011;40172;53.022;7.012;2023-02-28T08:56:21;20.60;;;15.82;;
54259;SDS011;40172;53.022;7.012;2023-02-28T08:58:47;23.50;;;15.80;;
54259;SDS011;40172;53.022;7.012;2023-02-28T09:01:17;22.10;;;15.75;;
54259;SDS011;40172;53.022;7.012;2023-02-28T09:03:45;21.58;;;16.50;;
54259;SDS011;40172;53.022;7.012;2023-02-28T09:06:12;18.25;;;8.23;;
54259;SDS011;40172;53.022;7.012;2023-02-28T09:08:38;22.85;;;7.28;;
54259;SDS011;40172;53.022;7.012;2023-02-28T09:11:04;20.27;;;15.00;;
54259;SDS011;40172;53.022;7.012;2023-02-28T09:13:30;20.48;;;15.18;;
54259;SDS011;40172;53.022;7.012;2023-02-28T09:15:58;18.40;;;14.10;;
54259;SDS011;40172;53.022;7.012;2023-02-28T09:18:24;24.65;;;14.90;;
54259;SDS011;40172;53.022;7.012;2023-02-28T09:20:51;22.35;;;15.20;;
54259;SDS011;40172;53.022;7.012;2023-02-28T09:23:16;28.23;;;15.25;;
54259;SDS011;40172;53.022;7.012;2023-02-28T09:25:46;18.30;;;14.18;;
54259;SDS011;40172;53.022;7.012;2023-02-28T09:28:13;15.60;;;13.00;;
54259;SDS011;40172;53.022;7.012;2023-02-28T09:30:41;15.88;;;12.00;;
54259;SDS011;40172;53.022;7.012;2023-02-28T09:33:06;15.15;;;11.65;;
54259;SDS011;40172;53.022;7.012;2023-02-28T09:35:32;20.50;;;12.93;;
54259;SDS011;40172;53.022;7.012;2023-02-28T09:37:58;14.45;;;10.43;;
54259;SDS011;40172;53.022;7.012;2023-02-28T09:40:26;16.67;;;11.43;;
54259;SDS011;40172;53.022;7.012;2023-02-28T09:42:52;14.70;;;11.57;;
54259;SDS011;40172;53.022;7.012;2023-02-28T09:45:27;16.60;;;11.63;;
54259;SDS011;40172;53.022;7.012;2023-02-28T09:47:59;17.95;;;11.48;;
54259;SDS011;40172;53.022;7.012;2023-02-28T09:50:36;19.35;;;11.13;;
54259;SDS011;40172;53.022;7.012;2023-02-28T09:53:22;14.60;;;10.98;;
54259;SDS011;40172;53.022;7.012;2023-02-28T09:56:01;18.67;;;11.52;;
54259;SDS011;40172;53.022;7.012;2023-02-28T10:10:26;10.40;;;8.27;;
54259;SDS011;40172;53.022;7.012;2023-02-28T10:13:33;16.15;;;9.95;;
54259;SDS011;40172;53.022;7.012;2023-02-28T10:16:03;11.40;;;7.90;;
54259;SDS011;40172;53.022;7.012;2023-02-28T10:18:56;10.13;;;6.50;;
54259;SDS011;40172;53.022;7.012;2023-02-28T10:21:30;9.38;;;6.22;;
54259;SDS011;40172;53.022;7.012;2023-02-28T10:24:21;13.73;;;8.15;;
54259;SDS011;40172;53.022;7.012;2023-02-28T10:26:56;12.05;;;8.60;;
54259;SDS011;40172;53.022;7.012;2023-02-28T10:29:27;12.85;;;8.30;;
54259;SDS011;40172;53.022;7.012;2023-02-28T10:38:14;10.05;;;7.18;;
54259;SDS011;40172;53.022;7.012;2023-02-28T10:40:46;14.85;;;7.68;;
54259;SDS011;40172;53.022;7.012;2023-02-28T10:45:39;11.80;;;7.70;;
54259;SDS011;40172;53.022;7.012;2023-02-28T10:48:45;19.65;;;8.50;;
54259;SDS011;40172;53.022;7.012;2023-02-28T10:51:25;11.55;;;7.60;;
54259;SDS011;40172;53.022;7.012;2023-02-28T10:54:29;12.70;;;7.50;;
54259;SDS011;40172;53.022;7.012;2023-02-28T11:00:15;8.05;;;5.43;;
54259;SDS011;40172;53.022;7.012;2023-02-28T11:02:50;8.75;;;5.90;;
54259;SDS011;40172;53.022;7.012;2023-02-28T11:08:10;8.57;;;5.82;;
54259;SDS011;40172;53.022;7.012;2023-02-28T11:10:39;11.27;;;5.90;;
54259;SDS011;40172;53.022;7.012;2023-02-28T11:13:14;8.30;;;5.50;;
54259;SDS011;40172;53.022;7.012;2023-02-28T11:18:20;8.23;;;5.80;;
54259;SDS011;40172;53.022;7.012;2023-02-28T11:20:54;10.35;;;5.70;;
54259;SDS011;40172;53.022;7.012;2023-02-28T11:23:23;11.30;;;5.97;;
54259;SDS011;40172;53.022;7.012;2023-02-28T11:25:56;10.30;;;5.47;;
54259;SDS011;40172;53.022;7.012;2023-02-28T11:33:51;7.82;;;5.57;;
54259;SDS011;40172;53.022;7.012;2023-02-28T11:36:24;8.73;;;5.70;;
54259;SDS011;40172;53.022;7.012;2023-02-28T11:38:55;12.18;;;7.50;;
54259;SDS011;40172;53.022;7.012;2023-02-28T11:47:01;7.38;;;5.43;;
54259;SDS011;40172;53.022;7.012;2023-02-28T11:49:37;9.43;;;6.28;;
54259;SDS011;40172;53.022;7.012;2023-02-28T11:52:19;10.43;;;5.50;;
54259;SDS011;40172;53.022;7.012;2023-02-28T11:57:44;11.27;;;5.80;;
54259;SDS011;40172;53.022;7.012;2023-02-28T12:03:07;7.88;;;5.30;;
54259;SDS011;40172;53.022;7.012;2023-02-28T12:14:52;9.88;;;5.03;;
54259;SDS011;40172;53.022;7.012;2023-02-28T12:17:37;10.90;;;5.70;;
54259;SDS011;40172;53.022;7.012;2023-02-28T12:20:30;6.78;;;5.20;;
54259;SDS011;40172;53.022;7.012;2023-02-28T12:26:00;9.95;;;5.28;;
54259;SDS011;40172;53.022;7.012;2023-02-28T12:28:44;6.03;;;4.80;;
54259;SDS011;40172;53.022;7.012;2023-02-28T12:31:17;7.10;;;4.90;;
54259;SDS011;40172;53.022;7.012;2023-02-28T12:33:52;16.98;;;6.30;;
54259;SDS011;40172;53.022;7.012;2023-02-28T12:36:21;12.93;;;6.75;;
54259;SDS011;40172;53.022;7.012;2023-02-28T12:41:41;6.93;;;4.90;;
54259;SDS011;40172;53.022;7.012;2023-02-28T12:47:01;7.10;;;4.20;;
54259;SDS011;40172;53.022;7.012;2023-02-28T12:49:39;8.23;;;4.90;;
54259;SDS011;40172;53.022;7.012;2023-02-28T12:55:48;8.95;;;5.13;;
54259;SDS011;40172;53.022;7.012;2023-02-28T12:59:00;6.65;;;3.92;;
54259;SDS011;40172;53.022;7.012;2023-02-28T13:02:02;6.45;;;4.20;;
54259;SDS011;40172;53.022;7.012;2023-02-28T13:07:42;4.93;;;3.25;;
54259;SDS011;40172;53.022;7.012;2023-02-28T13:10:19;5.93;;;3.20;;
54259;SDS011;40172;53.022;7.012;2023-02-28T13:12:49;4.93;;;3.20;;
54259;SDS011;40172;53.022;7.012;2023-02-28T13:15:17;5.15;;;3.90;;
54259;SDS011;40172;53.022;7.012;2023-02-28T13:17:48;5.43;;;4.00;;
54259;SDS011;40172;53.022;7.012;2023-02-28T13:20:18;7.60;;;4.53;;
54259;SDS011;40172;53.022;7.012;2023-02-28T13:22:47;5.65;;;4.00;;
54259;SDS011;40172;53.022;7.012;2023-02-28T13:27:59;5.72;;;4.50;;
54259;SDS011;40172;53.022;7.012;2023-02-28T13:36:09;6.13;;;4.88;;
54259;SDS011;40172;53.022;7.012;2023-02-28T13:38:51;10.13;;;5.00;;
54259;SDS011;40172;53.022;7.012;2023-02-28T13:49:18;9.52;;;5.32;;
54259;SDS011;40172;53.022;7.012;2023-02-28T13:51:49;9.20;;;4.80;;
54259;SDS011;40172;53.022;7.012;2023-02-28T13:58:19;6.35;;;4.47;;
54259;SDS011;40172;53.022;7.012;2023-02-28T14:05:40;7.18;;;4.22;;
54259;SDS011;40172;53.022;7.012;2023-02-28T14:08:17;6.90;;;4.38;;
54259;SDS011;40172;53.022;7.012;2023-02-28T14:10:49;6.32;;;4.25;;
54259;SDS011;40172;53.022;7.012;2023-02-28T14:16:09;5.80;;;3.60;;
54259;SDS011;40172;53.022;7.012;2023-02-28T14:18:37;6.05;;;3.75;;
54259;SDS011;40172;53.022;7.012;2023-02-28T14:21:25;5.85;;;3.50;;
54259;SDS011;40172;53.022;7.012;2023-02-28T14:38:18;6.05;;;4.00;;
54259;SDS011;40172;53.022;7.012;2023-02-28T14:40:47;5.75;;;3.85;;
54259;SDS011;40172;53.022;7.012;2023-02-28T14:43:21;7.68;;;4.10;;
54259;SDS011;40172;53.022;7.012;2023-02-28T14:45:53;5.22;;;3.70;;
54259;SDS011;40172;53.022;7.012;2023-02-28T14:48:22;6.85;;;3.60;;
54259;SDS011;40172;53.022;7.012;2023-02-28T14:50:51;8.27;;;3.97;;
54259;SDS011;40172;53.022;7.012;2023-02-28T14:53:35;5.72;;;3.50;;
54259;SDS011;40172;53.022;7.012;2023-02-28T14:56:05;5.25;;;3.40;;
54259;SDS011;40172;53.022;7.012;2023-02-28T14:58:33;6.47;;;3.72;;
54259;SDS011;40172;53.022;7.012;2023-02-28T15:01:10;5.30;;;3.63;;
54259;SDS011;40172;53.022;7.012;2023-02-28T15:03:37;6.38;;;3.70;;
54259;SDS011;40172;53.022;7.012;2023-02-28T15:06:21;5.82;;;3.63;;
54259;SDS011;40172;53.022;7.012;2023-02-28T15:08:48;7.28;;;3.60;;
54259;SDS011;40172;53.022;7.012;2023-02-28T15:11:31;6.37;;;3.47;;
54259;SDS011;40172;53.022;7.012;2023-02-28T15:13:57;8.13;;;3.13;;
54259;SDS011;40172;53.022;7.012;2023-02-28T15:16:28;5.10;;;2.70;;
54259;SDS011;40172;53.022;7.012;2023-02-28T15:18:58;4.35;;;2.80;;
54259;SDS011;40172;53.022;7.012;2023-02-28T15:21:31;4.55;;;3.08;;
54259;SDS011;40172;53.022;7.012;2023-02-28T15:26:48;7.57;;;4.28;;
54259;SDS011;40172;53.022;7.012;2023-02-28T15:29:24;5.47;;;3.95;;
54259;SDS011;40172;53.022;7.012;2023-02-28T15:31:58;7.25;;;4.32;;
54259;SDS011;40172;53.022;7.012;2023-02-28T15:34:37;7.05;;;4.07;;
54259;SDS011;40172;53.022;7.012;2023-02-28T15:37:25;6.85;;;3.60;;
54259;SDS011;40172;53.022;7.012;2023-02-28T15:39:55;5.68;;;3.63;;
54259;SDS011;40172;53.022;7.012;2023-02-28T15:42:23;6.63;;;4.18;;
54259;SDS011;40172;53.022;7.012;2023-02-28T15:44:53;8.43;;;3.80;;
54259;SDS011;40172;53.022;7.012;2023-02-28T15:47:20;7.05;;;3.83;;
54259;SDS011;40172;53.022;7.012;2023-02-28T15:50:09;5.85;;;3.28;;
54259;SDS011;40172;53.022;7.012;2023-02-28T15:55:12;5.75;;;3.80;;
54259;SDS011;40172;53.022;7.012;2023-02-28T15:57:41;6.87;;;3.53;;
54259;SDS011;40172;53.022;7.012;2023-02-28T16:00:10;6.63;;;3.90;;
54259;SDS011;40172;53.022;7.012;2023-02-28T16:02:41;7.20;;;3.35;;
54259;SDS011;40172;53.022;7.012;2023-02-28T16:07:33;5.95;;;3.58;;
54259;SDS011;40172;53.022;7.012;2023-02-28T16:10:03;5.93;;;3.40;;
54259;SDS011;40172;53.022;7.012;2023-02-28T16:12:32;6.43;;;3.38;;
54259;SDS011;40172;53.022;7.012;2023-02-28T16:15:00;4.68;;;3.28;;
54259;SDS011;40172;53.022;7.012;2023-02-28T16:17:28;4.88;;;3.50;;
54259;SDS011;40172;53.022;7.012;2023-02-28T16:19:57;3.90;;;3.03;;
54259;SDS011;40172;53.022;7.012;2023-02-28T16:22:23;5.38;;;3.10;;
54259;SDS011;40172;53.022;7.012;2023-02-28T16:24:49;8.25;;;3.20;;
54259;SDS011;40172;53.022;7.012;2023-02-28T16:27:16;4.68;;;3.10;;
54259;SDS011;40172;53.022;7.012;2023-02-28T16:29:56;7.05;;;3.33;;
54259;SDS011;40172;53.022;7.012;2023-02-28T16:32:22;6.65;;;3.38;;
54259;SDS011;40172;53.022;7.012;2023-02-28T16:34:47;4.40;;;3.08;;
54259;SDS011;40172;53.022;7.012;2023-02-28T16:37:14;7.50;;;3.47;;
54259;SDS011;40172;53.022;7.012;2023-02-28T16:39:42;6.25;;;3.55;;
54259;SDS011;40172;53.022;7.012;2023-02-28T16:42:15;4.72;;;3.30;;
54259;SDS011;40172;53.022;7.012;2023-02-28T16:44:46;4.85;;;2.95;;
54259;SDS011;40172;53.022;7.012;2023-02-28T16:47:12;5.80;;;3.05;;
54259;SDS011;40172;53.022;7.012;2023-02-28T16:49:38;5.78;;;3.25;;
54259;SDS011;40172;53.022;7.012;2023-02-28T16:52:07;6.40;;;3.63;;
54259;SDS011;40172;53.022;7.012;2023-02-28T16:54:33;6.70;;;3.90;;
54259;SDS011;40172;53.022;7.012;2023-02-28T16:56:58;6.03;;;3.63;;
54259;SDS011;40172;53.022;7.012;2023-02-28T16:59:24;5.53;;;3.70;;
54259;SDS011;40172;53.022;7.012;2023-02-28T17:01:52;8.82;;;3.63;;
54259;SDS011;40172;53.022;7.012;2023-02-28T17:04:18;6.97;;;3.47;;
54259;SDS011;40172;53.022;7.012;2023-02-28T17:06:44;6.50;;;3.72;;
54259;SDS011;40172;53.022;7.012;2023-02-28T17:09:20;6.53;;;3.40;;
54259;SDS011;40172;53.022;7.012;2023-02-28T17:11:47;4.45;;;3.40;;
54259;SDS011;40172;53.022;7.012;2023-02-28T17:14:14;7.47;;;4.10;;
54259;SDS011;40172;53.022;7.012;2023-02-28T17:16:40;12.23;;;7.60;;
54259;SDS011;40172;53.022;7.012;2023-02-28T17:19:09;8.60;;;5.65;;
54259;SDS011;40172;53.022;7.012;2023-02-28T17:21:37;9.55;;;5.30;;
54259;SDS011;40172;53.022;7.012;2023-02-28T17:24:03;9.32;;;6.07;;
54259;SDS011;40172;53.022;7.012;2023-02-28T17:26:29;9.68;;;7.05;;
54259;SDS011;40172;53.022;7.012;2023-02-28T17:28:56;11.65;;;8.00;;
54259;SDS011;40172;53.022;7.012;2023-02-28T17:31:22;14.85;;;9.30;;
54259;SDS011;40172;53.022;7.012;2023-02-28T17:33:49;16.15;;;10.23;;
54259;SDS011;40172;53.022;7.012;2023-02-28T17:36:16;16.77;;;6.85;;
54259;SDS011;40172;53.022;7.012;2023-02-28T17:38:50;11.43;;;5.68;;
54259;SDS011;40172;53.022;7.012;2023-02-28T17:41:17;13.40;;;8.15;;
54259;SDS011;40172;53.022;7.012;2023-02-28T17:43:43;13.30;;;10.02;;
54259;SDS011;40172;53.022;7.012;2023-02-28T17:46:16;6.63;;;4.53;;
54259;SDS011;40172;53.022;7.012;2023-02-28T17:48:45;11.98;;;5.50;;
54259;SDS011;40172;53.022;7.012;2023-02-28T17:51:13;19.00;;;10.40;;
54259;SDS011;40172;53.022;7.012;2023-02-28T17:53:39;10.75;;;5.30;;
54259;SDS011;40172;53.022;7.012;2023-02-28T17:56:05;8.75;;;4.28;;
54259;SDS011;40172;53.022;7.012;2023-02-28T17:58:41;14.23;;;10.88;;
54259;SDS011;40172;53.022;7.012;2023-02-28T18:01:06;15.05;;;9.85;;
54259;SDS011;40172;53.022;7.012;2023-02-28T18:03:32;12.27;;;7.00;;
54259;SDS011;40172;53.022;7.012;2023-02-28T18:05:58;25.05;;;12.07;;
54259;SDS011;40172;53.022;7.012;2023-02-28T18:08:24;67.93;;;26.90;;
54259;SDS011;40172;53.022;7.012;2023-02-28T18:10:50;17.98;;;8.98;;
54259;SDS011;40172;53.022;7.012;2023-02-28T18:13:16;43.78;;;19.27;;
54259;SDS011;40172;53.022;7.012;2023-02-28T18:15:42;53.17;;;21.30;;
54259;SDS011;40172;53.022;7.012;2023-02-28T18:18:07;38.60;;;15.70;;
54259;SDS011;40172;53.022;7.012;2023-02-28T18:20:34;22.30;;;9.98;;
54259;SDS011;40172;53.022;7.012;2023-02-28T18:23:00;19.77;;;8.60;;
54259;SDS011;40172;53.022;7.012;2023-02-28T18:25:26;11.40;;;6.60;;
54259;SDS011;40172;53.022;7.012;2023-02-28T18:27:52;11.40;;;4.80;;
54259;SDS011;40172;53.022;7.012;2023-02-28T18:30:27;14.13;;;6.72;;
54259;SDS011;40172;53.022;7.012;2023-02-28T18:32:58;12.63;;;6.88;;
54259;SDS011;40172;53.022;7.012;2023-02-28T18:35:25;28.48;;;10.52;;
54259;SDS011;40172;53.022;7.012;2023-02-28T18:38:01;43.05;;;16.60;;
54259;SDS011;40172;53.022;7.012;2023-02-28T18:40:28;41.67;;;18.42;;
54259;SDS011;40172;53.022;7.012;2023-02-28T18:42:54;39.45;;;26.77;;
54259;SDS011;40172;53.022;7.012;2023-02-28T18:45:19;29.10;;;22.27;;
54259;SDS011;40172;53.022;7.012;2023-02-28T18:47:45;15.88;;;8.10;;
54259;SDS011;40172;53.022;7.012;2023-02-28T18:50:11;19.25;;;9.48;;
54259;SDS011;40172;53.022;7.012;2023-02-28T18:52:37;22.95;;;10.63;;
54259;SDS011;40172;53.022;7.012;2023-02-28T18:55:03;58.95;;;26.23;;
54259;SDS011;40172;53.022;7.012;2023-02-28T18:57:31;44.88;;;19.70;;
54259;SDS011;40172;53.022;7.012;2023-02-28T18:59:57;20.60;;;10.10;;
54259;SDS011;40172;53.022;7.012;2023-02-28T19:02:23;16.65;;;10.05;;
54259;SDS011;40172;53.022;7.012;2023-02-28T19:04:48;15.45;;;8.57;;
54259;SDS011;40172;53.022;7.012;2023-02-28T19:07:14;23.23;;;10.90;;
54259;SDS011;40172;53.022;7.012;2023-02-28T19:09:39;33.92;;;23.25;;
54259;SDS011;40172;53.022;7.012;2023-02-28T19:12:05;27.92;;;21.65;;
54259;SDS011;40172;53.022;7.012;2023-02-28T19:14:30;26.65;;;12.32;;
54259;SDS011;40172;53.022;7.012;2023-02-28T19:16:56;18.95;;;9.63;;
54259;SDS011;40172;53.022;7.012;2023-02-28T19:19:21;26.90;;;10.02;;
54259;SDS011;40172;53.022;7.012;2023-02-28T19:21:47;20.17;;;8.88;;
54259;SDS011;40172;53.022;7.012;2023-02-28T19:24:13;29.52;;;10.40;;
54259;SDS011;40172;53.022;7.012;2023-02-28T19:26:38;18.17;;;8.02;;
54259;SDS011;40172;53.022;7.012;2023-02-28T19:29:04;19.60;;;8.15;;
54259;SDS011;40172;53.022;7.012;2023-02-28T19:31:29;21.90;;;9.93;;
54259;SDS011;40172;53.022;7.012;2023-02-28T19:33:55;16.67;;;8.32;;
54259;SDS011;40172;53.022;7.012;2023-02-28T19:36:21;19.30;;;9.52;;
54259;SDS011;40172;53.022;7.012;2023-02-28T19:38:47;21.15;;;9.95;;
54259;SDS011;40172;53.022;7.012;2023-02-28T19:41:14;20.25;;;9.25;;
54259;SDS011;40172;53.022;7.012;2023-02-28T19:43:41;19.42;;;8.07;;
54259;SDS011;40172;53.022;7.012;2023-02-28T19:46:07;19.63;;;9.60;;
54259;SDS011;40172;53.022;7.012;2023-02-28T19:48:33;17.00;;;9.15;;
54259;SDS011;40172;53.022;7.012;2023-02-28T19:51:02;17.15;;;9.35;;
54259;SDS011;40172;53.022;7.012;2023-02-28T19:53:40;48.60;;;8.05;;
54259;SDS011;40172;53.022;7.012;2023-02-28T19:56:06;12.95;;;6.90;;
54259;SDS011;40172;53.022;7.012;2023-02-28T19:58:32;15.77;;;7.00;;
54259;SDS011;40172;53.022;7.012;2023-02-28T20:01:20;12.32;;;5.80;;
54259;SDS011;40172;53.022;7.012;2023-02-28T20:03:48;9.35;;;5.63;;
54259;SDS011;40172;53.022;7.012;2023-02-28T20:06:14;32.25;;;26.02;;
54259;SDS011;40172;53.022;7.012;2023-02-28T20:08:40;18.05;;;8.40;;
54259;SDS011;40172;53.022;7.012;2023-02-28T20:11:07;20.52;;;10.23;;
54259;SDS011;40172;53.022;7.012;2023-02-28T20:13:35;17.85;;;8.60;;
54259;SDS011;40172;53.022;7.012;2023-02-28T20:16:02;18.80;;;10.18;;
54259;SDS011;40172;53.022;7.012;2023-02-28T20:18:30;23.23;;;10.68;;
54259;SDS011;40172;53.022;7.012;2023-02-28T20:20:56;20.80;;;10.20;;
54259;SDS011;40172;53.022;7.012;2023-02-28T20:23:22;18.15;;;9.43;;
54259;SDS011;40172;53.022;7.012;2023-02-28T20:25:48;27.88;;;10.50;;